sensor_id;sensor_type;location;lat;lon;timestamp;P1;durP1;ratioP1;P2;durP2;ratioP2
24335;SDS011;75016;52.400;16.880;2024-01-30T00:00:44;66.90;;;33.10;;
24335;SDS011;75016;52.400;16.880;2024-01-30T00:03:30;63.20;;;31.20;;
24335;SDS011;75016;52.400;16.880;2024-01-30T00:05:57;66.60;;;32.40;;
24335;SDS011;75016;52.400;16.880;2024-01-30T00:08:23;66.10;;;31.50;;
24335;SDS011;75016;52.400;16.880;2024-01-30T00:10:50;63.60;;;31.60;;
24335;SDS011;75016;52.400;16.880;2024-01-30T00:13:17;62.70;;;31.50;;
24335;SDS011;75016;52.400;16.880;2024-01-30T00:15:45;58.40;;;29.80;;
24335;SDS011;75016;52.400;16.880;2024-01-30T00:18:12;57.50;;;30.00;;
24335;SDS011;75016;52.400;16.880;2024-01-30T00:20:39;52.80;;;28.70;;
24335;SDS011;75016;52.400;16.880;2024-01-30T00:23:07;59.00;;;26.90;;
24335;SDS011;75016;52.400;16.880;2024-01-30T00:25:33;47.20;;;25.60;;
24335;SDS011;75016;52.400;16.880;2024-01-30T00:28:00;49.80;;;26.10;;
24335;SDS011;75016;52.400;16.880;2024-01-30T00:30:26;48.50;;;24.70;;
24335;SDS011;75016;52.400;16.880;2024-01-30T00:32:53;42.70;;;22.70;;
24335;SDS011;75016;52.400;16.880;2024-01-30T00:35:20;41.80;;;22.70;;
24335;SDS011;75016;52.400;16.880;2024-01-30T00:37:48;41.40;;;22.00;;
24335;SDS011;75016;52.400;16.880;2024-01-30T00:40:15;40.50;;;22.70;;
24335;SDS011;75016;52.400;16.880;2024-01-30T00:42:42;45.20;;;22.70;;
24335;SDS011;75016;52.400;16.880;2024-01-30T00:45:13;42.60;;;22.90;;
24335;SDS011;75016;52.400;16.880;2024-01-30T00:47:41;41.00;;;21.00;;
24335;SDS011;75016;52.400;16.880;2024-01-30T00:50:08;40.20;;;21.80;;
24335;SDS011;75016;52.400;16.880;2024-01-30T00:52:35;40.80;;;21.00;;
24335;SDS011;75016;52.400;16.880;2024-01-30T00:55:02;43.60;;;21.80;;
24335;SDS011;75016;52.400;16.880;2024-01-30T00:57:29;41.80;;;22.40;;
24335;SDS011;75016;52.400;16.880;2024-01-30T00:59:55;43.40;;;21.70;;
24335;SDS011;75016;52.400;16.880;2024-01-30T01:02:22;40.40;;;21.70;;
24335;SDS011;75016;52.400;16.880;2024-01-30T01:04:49;37.80;;;20.40;;
24335;SDS011;75016;52.400;16.880;2024-01-30T01:07:16;45.40;;;22.30;;
24335;SDS011;75016;52.400;16.880;2024-01-30T01:09:42;43.80;;;21.40;;
24335;SDS011;75016;52.400;16.880;2024-01-30T01:12:09;46.30;;;22.70;;
24335;SDS011;75016;52.400;16.880;2024-01-30T01:14:35;42.10;;;22.40;;
24335;SDS011;75016;52.400;16.880;2024-01-30T01:17:02;41.80;;;22.20;;
24335;SDS011;75016;52.400;16.880;2024-01-30T01:19:29;39.60;;;22.00;;
24335;SDS011;75016;52.400;16.880;2024-01-30T01:21:55;46.70;;;22.10;;
24335;SDS011;75016;52.400;16.880;2024-01-30T01:24:22;40.10;;;21.40;;
24335;SDS011;75016;52.400;16.880;2024-01-30T01:26:49;44.90;;;22.60;;
24335;SDS011;75016;52.400;16.880;2024-01-30T01:29:15;43.20;;;22.90;;
24335;SDS011;75016;52.400;16.880;2024-01-30T01:31:42;40.00;;;22.00;;
24335;SDS011;75016;52.400;16.880;2024-01-30T01:34:13;44.10;;;22.80;;
24335;SDS011;75016;52.400;16.880;2024-01-30T01:36:40;44.60;;;22.50;;
24335;SDS011;75016;52.400;16.880;2024-01-30T01:39:07;40.40;;;22.70;;
24335;SDS011;75016;52.400;16.880;2024-01-30T01:41:34;41.00;;;22.30;;
24335;SDS011;75016;52.400;16.880;2024-01-30T01:44:01;41.30;;;21.50;;
24335;SDS011;75016;52.400;16.880;2024-01-30T01:46:27;43.30;;;21.60;;
24335;SDS011;75016;52.400;16.880;2024-01-30T01:48:57;42.50;;;21.60;;
24335;SDS011;75016;52.400;16.880;2024-01-30T01:51:24;39.70;;;20.90;;
24335;SDS011;75016;52.400;16.880;2024-01-30T01:53:54;41.40;;;21.40;;
24335;SDS011;75016;52.400;16.880;2024-01-30T01:56:22;40.50;;;20.80;;
24335;SDS011;75016;52.400;16.880;2024-01-30T01:58:49;37.60;;;21.70;;
24335;SDS011;75016;52.400;16.880;2024-01-30T02:01:21;39.60;;;22.10;;
24335;SDS011;75016;52.400;16.880;2024-01-30T02:03:49;48.60;;;22.70;;
24335;SDS011;75016;52.400;16.880;2024-01-30T02:06:16;40.70;;;22.10;;
24335;SDS011;75016;52.400;16.880;2024-01-30T02:08:43;41.50;;;22.00;;
24335;SDS011;75016;52.400;16.880;2024-01-30T02:11:10;41.40;;;22.20;;
24335;SDS011;75016;52.400;16.880;2024-01-30T02:13:37;41.10;;;21.20;;
24335;SDS011;75016;52.400;16.880;2024-01-30T02:16:04;40.90;;;21.50;;
24335;SDS011;75016;52.400;16.880;2024-01-30T02:18:31;43.70;;;22.00;;
24335;SDS011;75016;52.400;16.880;2024-01-30T02:20:58;41.00;;;21.70;;
24335;SDS011;75016;52.400;16.880;2024-01-30T02:23:28;41.00;;;22.20;;
24335;SDS011;75016;52.400;16.880;2024-01-30T02:25:54;39.80;;;21.70;;
24335;SDS011;75016;52.400;16.880;2024-01-30T02:28:21;44.30;;;21.50;;
24335;SDS011;75016;52.400;16.880;2024-01-30T02:30:48;38.90;;;21.40;;
24335;SDS011;75016;52.400;16.880;2024-01-30T02:33:14;42.50;;;21.90;;
24335;SDS011;75016;52.400;16.880;2024-01-30T02:35:41;38.90;;;21.30;;
24335;SDS011;75016;52.400;16.880;2024-01-30T02:38:08;39.60;;;21.30;;
24335;SDS011;75016;52.400;16.880;2024-01-30T02:40:34;43.50;;;22.70;;
24335;SDS011;75016;52.400;16.880;2024-01-30T02:43:01;44.60;;;24.10;;
24335;SDS011;75016;52.400;16.880;2024-01-30T02:45:29;48.30;;;25.70;;
24335;SDS011;75016;52.400;16.880;2024-01-30T02:47:55;46.20;;;23.60;;
24335;SDS011;75016;52.400;16.880;2024-01-30T02:50:22;49.10;;;23.80;;
24335;SDS011;75016;52.400;16.880;2024-01-30T02:52:49;42.70;;;22.60;;
24335;SDS011;75016;52.400;16.880;2024-01-30T02:55:16;42.00;;;22.30;;
24335;SDS011;75016;52.400;16.880;2024-01-30T02:57:45;42.50;;;22.50;;
24335;SDS011;75016;52.400;16.880;2024-01-30T03:00:12;39.70;;;21.70;;
24335;SDS011;75016;52.400;16.880;2024-01-30T03:02:39;42.70;;;22.70;;
24335;SDS011;75016;52.400;16.880;2024-01-30T03:05:08;48.60;;;23.00;;
24335;SDS011;75016;52.400;16.880;2024-01-30T03:07:34;43.70;;;22.10;;
24335;SDS011;75016;52.400;16.880;2024-01-30T03:10:01;41.60;;;21.20;;
24335;SDS011;75016;52.400;16.880;2024-01-30T03:12:28;42.50;;;20.70;;
24335;SDS011;75016;52.400;16.880;2024-01-30T03:14:54;39.00;;;21.40;;
24335;SDS011;75016;52.400;16.880;2024-01-30T03:17:21;39.20;;;22.30;;
24335;SDS011;75016;52.400;16.880;2024-01-30T03:19:47;45.40;;;23.00;;
24335;SDS011;75016;52.400;16.880;2024-01-30T03:22:14;40.80;;;21.70;;
24335;SDS011;75016;52.400;16.880;2024-01-30T03:24:40;39.90;;;22.00;;
24335;SDS011;75016;52.400;16.880;2024-01-30T03:27:07;40.60;;;21.90;;
24335;SDS011;75016;52.400;16.880;2024-01-30T03:29:34;39.20;;;21.50;;
24335;SDS011;75016;52.400;16.880;2024-01-30T03:32:01;38.20;;;21.00;;
24335;SDS011;75016;52.400;16.880;2024-01-30T03:34:28;41.10;;;20.60;;
24335;SDS011;75016;52.400;16.880;2024-01-30T03:36:54;38.80;;;20.00;;
24335;SDS011;75016;52.400;16.880;2024-01-30T03:39:21;38.30;;;20.20;;
24335;SDS011;75016;52.400;16.880;2024-01-30T03:41:47;37.40;;;20.30;;
24335;SDS011;75016;52.400;16.880;2024-01-30T03:44:14;41.60;;;21.40;;
24335;SDS011;75016;52.400;16.880;2024-01-30T03:46:40;37.30;;;21.00;;
24335;SDS011;75016;52.400;16.880;2024-01-30T03:49:07;42.70;;;21.40;;
24335;SDS011;75016;52.400;16.880;2024-01-30T03:51:33;38.20;;;20.10;;
24335;SDS011;75016;52.400;16.880;2024-01-30T03:53:59;37.10;;;19.00;;
24335;SDS011;75016;52.400;16.880;2024-01-30T03:56:26;35.00;;;19.70;;
24335;SDS011;75016;52.400;16.880;2024-01-30T03:58:53;36.80;;;20.00;;
24335;SDS011;75016;52.400;16.880;2024-01-30T04:01:19;36.50;;;18.70;;
24335;SDS011;75016;52.400;16.880;2024-01-30T04:03:46;33.60;;;19.40;;
24335;SDS011;75016;52.400;16.880;2024-01-30T04:06:12;36.20;;;20.00;;
24335;SDS011;75016;52.400;16.880;2024-01-30T04:08:39;37.20;;;20.30;;
24335;SDS011;75016;52.400;16.880;2024-01-30T04:11:06;34.70;;;19.00;;
24335;SDS011;75016;52.400;16.880;2024-01-30T04:13:33;37.90;;;19.60;;
24335;SDS011;75016;52.400;16.880;2024-01-30T04:16:00;39.00;;;19.80;;
24335;SDS011;75016;52.400;16.880;2024-01-30T04:18:29;36.50;;;19.20;;
24335;SDS011;75016;52.400;16.880;2024-01-30T04:20:56;35.20;;;19.10;;
24335;SDS011;75016;52.400;16.880;2024-01-30T04:23:22;39.20;;;20.00;;
24335;SDS011;75016;52.400;16.880;2024-01-30T04:25:49;37.90;;;19.80;;
24335;SDS011;75016;52.400;16.880;2024-01-30T04:28:16;33.20;;;19.60;;
24335;SDS011;75016;52.400;16.880;2024-01-30T04:30:42;37.90;;;19.30;;
24335;SDS011;75016;52.400;16.880;2024-01-30T04:33:10;38.30;;;20.20;;
24335;SDS011;75016;52.400;16.880;2024-01-30T04:35:37;35.40;;;18.90;;
24335;SDS011;75016;52.400;16.880;2024-01-30T04:38:04;34.20;;;19.20;;
24335;SDS011;75016;52.400;16.880;2024-01-30T04:40:30;34.20;;;17.80;;
24335;SDS011;75016;52.400;16.880;2024-01-30T04:42:57;34.30;;;18.30;;
24335;SDS011;75016;52.400;16.880;2024-01-30T04:45:23;33.80;;;18.10;;
24335;SDS011;75016;52.400;16.880;2024-01-30T04:47:49;36.60;;;18.40;;
24335;SDS011;75016;52.400;16.880;2024-01-30T04:50:16;35.20;;;19.50;;
24335;SDS011;75016;52.400;16.880;2024-01-30T04:52:43;34.20;;;18.60;;
24335;SDS011;75016;52.400;16.880;2024-01-30T04:55:09;36.20;;;19.10;;
24335;SDS011;75016;52.400;16.880;2024-01-30T04:57:36;36.70;;;19.20;;
24335;SDS011;75016;52.400;16.880;2024-01-30T05:00:03;35.70;;;18.20;;
24335;SDS011;75016;52.400;16.880;2024-01-30T05:02:29;32.90;;;19.00;;
24335;SDS011;75016;52.400;16.880;2024-01-30T05:04:56;36.00;;;18.50;;
24335;SDS011;75016;52.400;16.880;2024-01-30T05:07:24;34.20;;;17.90;;
24335;SDS011;75016;52.400;16.880;2024-01-30T05:09:51;42.40;;;18.40;;
24335;SDS011;75016;52.400;16.880;2024-01-30T05:12:17;32.80;;;17.70;;
24335;SDS011;75016;52.400;16.880;2024-01-30T05:14:44;32.20;;;17.90;;
24335;SDS011;75016;52.400;16.880;2024-01-30T05:17:10;32.60;;;18.00;;
24335;SDS011;75016;52.400;16.880;2024-01-30T05:19:39;34.90;;;18.40;;
24335;SDS011;75016;52.400;16.880;2024-01-30T05:22:05;33.60;;;17.50;;
24335;SDS011;75016;52.400;16.880;2024-01-30T05:24:33;36.90;;;19.60;;
24335;SDS011;75016;52.400;16.880;2024-01-30T05:26:59;34.40;;;18.20;;
24335;SDS011;75016;52.400;16.880;2024-01-30T05:29:26;39.30;;;19.00;;
24335;SDS011;75016;52.400;16.880;2024-01-30T05:31:53;37.10;;;19.40;;
24335;SDS011;75016;52.400;16.880;2024-01-30T05:34:20;44.00;;;20.80;;
24335;SDS011;75016;52.400;16.880;2024-01-30T05:36:46;35.40;;;19.50;;
24335;SDS011;75016;52.400;16.880;2024-01-30T05:39:13;32.90;;;18.10;;
24335;SDS011;75016;52.400;16.880;2024-01-30T05:41:39;33.60;;;17.80;;
24335;SDS011;75016;52.400;16.880;2024-01-30T05:44:06;33.70;;;18.00;;
24335;SDS011;75016;52.400;16.880;2024-01-30T05:46:33;34.40;;;18.10;;
24335;SDS011;75016;52.400;16.880;2024-01-30T05:48:59;33.80;;;18.30;;
24335;SDS011;75016;52.400;16.880;2024-01-30T05:51:26;34.50;;;18.30;;
24335;SDS011;75016;52.400;16.880;2024-01-30T05:53:54;30.00;;;17.30;;
24335;SDS011;75016;52.400;16.880;2024-01-30T05:56:20;33.80;;;18.90;;
24335;SDS011;75016;52.400;16.880;2024-01-30T05:58:47;32.60;;;18.80;;
24335;SDS011;75016;52.400;16.880;2024-01-30T06:01:13;37.20;;;19.30;;
24335;SDS011;75016;52.400;16.880;2024-01-30T06:03:40;34.30;;;19.30;;
24335;SDS011;75016;52.400;16.880;2024-01-30T06:06:07;36.40;;;18.80;;
24335;SDS011;75016;52.400;16.880;2024-01-30T06:08:33;36.60;;;18.50;;
24335;SDS011;75016;52.400;16.880;2024-01-30T06:11:00;36.20;;;20.10;;
24335;SDS011;75016;52.400;16.880;2024-01-30T06:13:27;36.50;;;19.40;;
24335;SDS011;75016;52.400;16.880;2024-01-30T06:15:53;34.20;;;18.90;;
24335;SDS011;75016;52.400;16.880;2024-01-30T06:18:20;38.80;;;20.60;;
24335;SDS011;75016;52.400;16.880;2024-01-30T06:20:46;39.60;;;19.60;;
24335;SDS011;75016;52.400;16.880;2024-01-30T06:23:13;35.50;;;18.70;;
24335;SDS011;75016;52.400;16.880;2024-01-30T06:25:40;40.30;;;20.10;;
24335;SDS011;75016;52.400;16.880;2024-01-30T06:28:07;36.10;;;19.50;;
24335;SDS011;75016;52.400;16.880;2024-01-30T06:30:34;36.30;;;19.70;;
24335;SDS011;75016;52.400;16.880;2024-01-30T06:33:00;34.00;;;19.00;;
24335;SDS011;75016;52.400;16.880;2024-01-30T06:35:27;36.20;;;19.20;;
24335;SDS011;75016;52.400;16.880;2024-01-30T06:37:55;36.80;;;19.80;;
24335;SDS011;75016;52.400;16.880;2024-01-30T06:40:21;32.50;;;18.40;;
24335;SDS011;75016;52.400;16.880;2024-01-30T06:42:48;37.10;;;18.90;;
24335;SDS011;75016;52.400;16.880;2024-01-30T06:45:14;37.70;;;21.90;;
24335;SDS011;75016;52.400;16.880;2024-01-30T06:47:41;36.20;;;21.90;;
24335;SDS011;75016;52.400;16.880;2024-01-30T06:50:08;41.20;;;24.00;;
24335;SDS011;75016;52.400;16.880;2024-01-30T06:52:35;38.20;;;23.10;;
24335;SDS011;75016;52.400;16.880;2024-01-30T06:55:02;42.70;;;23.10;;
24335;SDS011;75016;52.400;16.880;2024-01-30T06:57:29;46.10;;;23.40;;
24335;SDS011;75016;52.400;16.880;2024-01-30T06:59:56;44.30;;;24.20;;
24335;SDS011;75016;52.400;16.880;2024-01-30T07:02:23;47.60;;;24.40;;
24335;SDS011;75016;52.400;16.880;2024-01-30T07:04:50;44.60;;;24.00;;
24335;SDS011;75016;52.400;16.880;2024-01-30T07:07:16;44.60;;;23.40;;
24335;SDS011;75016;52.400;16.880;2024-01-30T07:09:43;43.30;;;23.40;;
24335;SDS011;75016;52.400;16.880;2024-01-30T07:12:09;47.80;;;23.30;;
24335;SDS011;75016;52.400;16.880;2024-01-30T07:14:36;42.70;;;23.80;;
24335;SDS011;75016;52.400;16.880;2024-01-30T07:17:03;46.90;;;24.50;;
24335;SDS011;75016;52.400;16.880;2024-01-30T07:19:29;43.50;;;23.60;;
24335;SDS011;75016;52.400;16.880;2024-01-30T07:21:56;38.80;;;22.50;;
24335;SDS011;75016;52.400;16.880;2024-01-30T07:24:22;42.60;;;23.10;;
24335;SDS011;75016;52.400;16.880;2024-01-30T07:26:49;39.50;;;22.00;;
24335;SDS011;75016;52.400;16.880;2024-01-30T07:29:16;42.60;;;22.10;;
24335;SDS011;75016;52.400;16.880;2024-01-30T07:31:42;41.10;;;22.30;;
24335;SDS011;75016;52.400;16.880;2024-01-30T07:34:09;32.90;;;19.50;;
24335;SDS011;75016;52.400;16.880;2024-01-30T07:36:35;34.50;;;19.40;;
24335;SDS011;75016;52.400;16.880;2024-01-30T07:39:02;32.40;;;17.70;;
24335;SDS011;75016;52.400;16.880;2024-01-30T07:41:28;35.30;;;18.30;;
24335;SDS011;75016;52.400;16.880;2024-01-30T07:43:55;36.20;;;18.40;;
24335;SDS011;75016;52.400;16.880;2024-01-30T07:46:21;33.30;;;17.70;;
24335;SDS011;75016;52.400;16.880;2024-01-30T07:48:48;33.30;;;16.60;;
24335;SDS011;75016;52.400;16.880;2024-01-30T07:51:14;33.30;;;15.90;;
24335;SDS011;75016;52.400;16.880;2024-01-30T07:53:41;34.90;;;17.30;;
24335;SDS011;75016;52.400;16.880;2024-01-30T07:56:08;31.70;;;16.70;;
24335;SDS011;75016;52.400;16.880;2024-01-30T07:58:34;29.00;;;16.40;;
24335;SDS011;75016;52.400;16.880;2024-01-30T08:01:01;28.90;;;16.10;;
24335;SDS011;75016;52.400;16.880;2024-01-30T08:03:27;31.20;;;16.90;;
24335;SDS011;75016;52.400;16.880;2024-01-30T08:05:54;32.10;;;17.30;;
24335;SDS011;75016;52.400;16.880;2024-01-30T08:08:21;30.50;;;15.90;;
24335;SDS011;75016;52.400;16.880;2024-01-30T08:10:48;32.20;;;17.40;;
24335;SDS011;75016;52.400;16.880;2024-01-30T08:13:16;34.80;;;17.00;;
24335;SDS011;75016;52.400;16.880;2024-01-30T08:15:43;34.60;;;17.00;;
24335;SDS011;75016;52.400;16.880;2024-01-30T08:18:09;31.20;;;17.20;;
24335;SDS011;75016;52.400;16.880;2024-01-30T08:20:36;29.50;;;16.60;;
24335;SDS011;75016;52.400;16.880;2024-01-30T08:23:02;37.10;;;17.70;;
24335;SDS011;75016;52.400;16.880;2024-01-30T08:25:29;28.00;;;16.50;;
24335;SDS011;75016;52.400;16.880;2024-01-30T08:27:56;29.10;;;15.80;;
24335;SDS011;75016;52.400;16.880;2024-01-30T08:30:23;30.60;;;16.70;;
24335;SDS011;75016;52.400;16.880;2024-01-30T08:32:50;31.40;;;16.80;;
24335;SDS011;75016;52.400;16.880;2024-01-30T08:35:16;30.20;;;16.40;;
24335;SDS011;75016;52.400;16.880;2024-01-30T08:37:43;30.80;;;17.10;;
24335;SDS011;75016;52.400;16.880;2024-01-30T08:40:10;36.40;;;17.90;;
24335;SDS011;75016;52.400;16.880;2024-01-30T08:42:36;34.70;;;18.40;;
24335;SDS011;75016;52.400;16.880;2024-01-30T08:45:03;34.60;;;18.60;;
24335;SDS011;75016;52.400;16.880;2024-01-30T08:47:31;33.80;;;17.70;;
24335;SDS011;75016;52.400;16.880;2024-01-30T08:49:59;36.10;;;18.80;;
24335;SDS011;75016;52.400;16.880;2024-01-30T08:52:26;34.60;;;18.60;;
24335;SDS011;75016;52.400;16.880;2024-01-30T08:54:52;34.50;;;18.50;;
24335;SDS011;75016;52.400;16.880;2024-01-30T08:57:19;37.10;;;19.10;;
24335;SDS011;75016;52.400;16.880;2024-01-30T08:59:46;37.20;;;18.70;;
24335;SDS011;75016;52.400;16.880;2024-01-30T09:02:13;37.10;;;19.10;;
24335;SDS011;75016;52.400;16.880;2024-01-30T09:04:42;39.50;;;18.80;;
24335;SDS011;75016;52.400;16.880;2024-01-30T09:07:09;38.40;;;18.50;;
24335;SDS011;75016;52.400;16.880;2024-01-30T09:09:39;41.80;;;19.70;;
24335;SDS011;75016;52.400;16.880;2024-01-30T09:12:09;37.80;;;19.50;;
24335;SDS011;75016;52.400;16.880;2024-01-30T09:14:38;31.30;;;17.50;;
24335;SDS011;75016;52.400;16.880;2024-01-30T09:17:05;35.40;;;19.20;;
24335;SDS011;75016;52.400;16.880;2024-01-30T09:19:32;34.80;;;18.60;;
24335;SDS011;75016;52.400;16.880;2024-01-30T09:21:58;36.00;;;18.60;;
24335;SDS011;75016;52.400;16.880;2024-01-30T09:24:25;36.80;;;20.30;;
24335;SDS011;75016;52.400;16.880;2024-01-30T09:26:52;35.00;;;19.70;;
24335;SDS011;75016;52.400;16.880;2024-01-30T09:29:19;39.50;;;20.70;;
24335;SDS011;75016;52.400;16.880;2024-01-30T09:31:46;31.70;;;19.40;;
24335;SDS011;75016;52.400;16.880;2024-01-30T09:34:13;35.80;;;19.50;;
24335;SDS011;75016;52.400;16.880;2024-01-30T09:36:40;41.70;;;20.30;;
24335;SDS011;75016;52.400;16.880;2024-01-30T09:39:07;31.30;;;18.50;;
24335;SDS011;75016;52.400;16.880;2024-01-30T09:41:34;32.00;;;18.70;;
24335;SDS011;75016;52.400;16.880;2024-01-30T09:44:09;31.80;;;18.10;;
24335;SDS011;75016;52.400;16.880;2024-01-30T09:46:38;31.70;;;18.00;;
24335;SDS011;75016;52.400;16.880;2024-01-30T09:49:05;33.80;;;18.20;;
24335;SDS011;75016;52.400;16.880;2024-01-30T09:51:33;31.20;;;17.70;;
24335;SDS011;75016;52.400;16.880;2024-01-30T09:54:01;34.40;;;18.80;;
24335;SDS011;75016;52.400;16.880;2024-01-30T09:56:29;31.40;;;18.30;;
24335;SDS011;75016;52.400;16.880;2024-01-30T09:58:56;30.90;;;17.70;;
24335;SDS011;75016;52.400;16.880;2024-01-30T10:01:22;30.70;;;16.10;;
24335;SDS011;75016;52.400;16.880;2024-01-30T10:03:50;27.70;;;16.50;;
24335;SDS011;75016;52.400;16.880;2024-01-30T10:06:18;30.70;;;15.70;;
24335;SDS011;75016;52.400;16.880;2024-01-30T10:08:47;24.10;;;14.50;;
24335;SDS011;75016;52.400;16.880;2024-01-30T10:11:13;32.70;;;17.20;;
24335;SDS011;75016;52.400;16.880;2024-01-30T10:13:40;29.10;;;14.70;;
24335;SDS011;75016;52.400;16.880;2024-01-30T10:16:06;22.30;;;12.30;;
24335;SDS011;75016;52.400;16.880;2024-01-30T10:18:33;28.90;;;14.60;;
24335;SDS011;75016;52.400;16.880;2024-01-30T10:21:00;24.90;;;13.80;;
24335;SDS011;75016;52.400;16.880;2024-01-30T10:23:26;23.60;;;14.60;;
24335;SDS011;75016;52.400;16.880;2024-01-30T10:25:53;27.40;;;15.60;;
24335;SDS011;75016;52.400;16.880;2024-01-30T10:28:20;25.10;;;15.00;;
24335;SDS011;75016;52.400;16.880;2024-01-30T10:30:56;24.60;;;14.20;;
24335;SDS011;75016;52.400;16.880;2024-01-30T10:33:24;26.70;;;14.20;;
24335;SDS011;75016;52.400;16.880;2024-01-30T10:35:51;22.00;;;13.70;;
24335;SDS011;75016;52.400;16.880;2024-01-30T10:38:18;21.30;;;12.90;;
24335;SDS011;75016;52.400;16.880;2024-01-30T10:40:46;27.70;;;14.00;;
24335;SDS011;75016;52.400;16.880;2024-01-30T10:43:16;24.50;;;13.70;;
24335;SDS011;75016;52.400;16.880;2024-01-30T10:45:48;25.10;;;13.20;;
24335;SDS011;75016;52.400;16.880;2024-01-30T10:48:16;23.80;;;13.50;;
24335;SDS011;75016;52.400;16.880;2024-01-30T10:50:45;21.40;;;13.30;;
24335;SDS011;75016;52.400;16.880;2024-01-30T10:53:11;25.30;;;14.00;;
24335;SDS011;75016;52.400;16.880;2024-01-30T10:55:39;28.80;;;13.90;;
24335;SDS011;75016;52.400;16.880;2024-01-30T10:58:07;29.10;;;13.60;;
24335;SDS011;75016;52.400;16.880;2024-01-30T11:00:34;19.10;;;11.80;;
24335;SDS011;75016;52.400;16.880;2024-01-30T11:03:01;24.10;;;12.80;;
24335;SDS011;75016;52.400;16.880;2024-01-30T11:05:30;19.80;;;12.70;;
24335;SDS011;75016;52.400;16.880;2024-01-30T11:07:56;19.60;;;12.10;;
24335;SDS011;75016;52.400;16.880;2024-01-30T11:10:24;19.00;;;11.80;;
24335;SDS011;75016;52.400;16.880;2024-01-30T11:12:51;18.00;;;11.30;;
24335;SDS011;75016;52.400;16.880;2024-01-30T11:15:18;18.10;;;11.20;;
24335;SDS011;75016;52.400;16.880;2024-01-30T11:17:53;19.90;;;11.40;;
24335;SDS011;75016;52.400;16.880;2024-01-30T11:22:58;17.50;;;10.70;;
24335;SDS011;75016;52.400;16.880;2024-01-30T11:25:25;18.20;;;11.70;;
24335;SDS011;75016;52.400;16.880;2024-01-30T11:27:53;19.00;;;11.30;;
24335;SDS011;75016;52.400;16.880;2024-01-30T11:30:27;19.30;;;10.50;;
24335;SDS011;75016;52.400;16.880;2024-01-30T11:33:02;18.00;;;10.90;;
24335;SDS011;75016;52.400;16.880;2024-01-30T11:35:41;17.40;;;11.00;;
24335;SDS011;75016;52.400;16.880;2024-01-30T11:38:09;21.00;;;11.00;;
24335;SDS011;75016;52.400;16.880;2024-01-30T11:40:37;23.30;;;11.20;;
24335;SDS011;75016;52.400;16.880;2024-01-30T11:43:05;17.90;;;11.10;;
24335;SDS011;75016;52.400;16.880;2024-01-30T11:45:33;20.80;;;11.90;;
24335;SDS011;75016;52.400;16.880;2024-01-30T11:48:01;16.70;;;10.30;;
24335;SDS011;75016;52.400;16.880;2024-01-30T11:50:35;18.80;;;11.40;;
24335;SDS011;75016;52.400;16.880;2024-01-30T11:53:04;17.40;;;11.10;;
24335;SDS011;75016;52.400;16.880;2024-01-30T11:55:31;20.60;;;11.80;;
24335;SDS011;75016;52.400;16.880;2024-01-30T11:57:58;17.20;;;10.70;;
24335;SDS011;75016;52.400;16.880;2024-01-30T12:00:26;19.20;;;11.70;;
24335;SDS011;75016;52.400;16.880;2024-01-30T12:02:54;18.60;;;11.00;;
24335;SDS011;75016;52.400;16.880;2024-01-30T12:05:27;23.50;;;12.00;;
24335;SDS011;75016;52.400;16.880;2024-01-30T12:07:54;22.90;;;11.90;;
24335;SDS011;75016;52.400;16.880;2024-01-30T12:10:21;16.40;;;10.90;;
24335;SDS011;75016;52.400;16.880;2024-01-30T12:12:51;19.50;;;11.30;;
24335;SDS011;75016;52.400;16.880;2024-01-30T12:15:18;19.00;;;11.20;;
24335;SDS011;75016;52.400;16.880;2024-01-30T12:17:47;19.00;;;10.30;;
24335;SDS011;75016;52.400;16.880;2024-01-30T12:20:15;18.30;;;10.90;;
24335;SDS011;75016;52.400;16.880;2024-01-30T12:22:45;18.40;;;11.70;;
24335;SDS011;75016;52.400;16.880;2024-01-30T12:25:14;18.50;;;11.50;;
24335;SDS011;75016;52.400;16.880;2024-01-30T12:27:45;16.90;;;10.90;;
24335;SDS011;75016;52.400;16.880;2024-01-30T12:30:13;17.90;;;11.40;;
24335;SDS011;75016;52.400;16.880;2024-01-30T12:32:44;18.60;;;10.70;;
24335;SDS011;75016;52.400;16.880;2024-01-30T12:35:12;19.80;;;11.20;;
24335;SDS011;75016;52.400;16.880;2024-01-30T12:37:42;17.40;;;11.30;;
24335;SDS011;75016;52.400;16.880;2024-01-30T12:40:11;20.50;;;11.20;;
24335;SDS011;75016;52.400;16.880;2024-01-30T12:42:41;17.30;;;11.00;;
24335;SDS011;75016;52.400;16.880;2024-01-30T12:45:09;20.10;;;11.40;;
24335;SDS011;75016;52.400;16.880;2024-01-30T12:47:36;17.80;;;11.40;;
24335;SDS011;75016;52.400;16.880;2024-01-30T12:50:03;19.90;;;11.10;;
24335;SDS011;75016;52.400;16.880;2024-01-30T12:52:31;23.00;;;11.10;;
24335;SDS011;75016;52.400;16.880;2024-01-30T12:54:57;19.40;;;11.20;;
24335;SDS011;75016;52.400;16.880;2024-01-30T12:57:24;18.00;;;10.80;;
24335;SDS011;75016;52.400;16.880;2024-01-30T12:59:50;19.60;;;11.30;;
24335;SDS011;75016;52.400;16.880;2024-01-30T13:02:17;20.70;;;11.50;;
24335;SDS011;75016;52.400;16.880;2024-01-30T13:04:44;19.80;;;11.40;;
24335;SDS011;75016;52.400;16.880;2024-01-30T13:07:10;20.10;;;12.30;;
24335;SDS011;75016;52.400;16.880;2024-01-30T13:09:37;19.60;;;11.40;;
24335;SDS011;75016;52.400;16.880;2024-01-30T13:12:04;23.10;;;12.00;;
24335;SDS011;75016;52.400;16.880;2024-01-30T13:14:31;21.10;;;12.00;;
24335;SDS011;75016;52.400;16.880;2024-01-30T13:16:57;17.00;;;12.00;;
24335;SDS011;75016;52.400;16.880;2024-01-30T13:19:24;24.00;;;13.40;;
24335;SDS011;75016;52.400;16.880;2024-01-30T13:21:51;20.80;;;12.50;;
24335;SDS011;75016;52.400;16.880;2024-01-30T13:24:17;20.20;;;12.70;;
24335;SDS011;75016;52.400;16.880;2024-01-30T13:26:48;22.50;;;12.40;;
24335;SDS011;75016;52.400;16.880;2024-01-30T13:29:15;23.20;;;12.90;;
24335;SDS011;75016;52.400;16.880;2024-01-30T13:31:41;20.40;;;12.50;;
24335;SDS011;75016;52.400;16.880;2024-01-30T13:34:10;21.60;;;12.50;;
24335;SDS011;75016;52.400;16.880;2024-01-30T13:36:37;22.90;;;13.60;;
24335;SDS011;75016;52.400;16.880;2024-01-30T13:39:04;23.50;;;13.70;;
24335;SDS011;75016;52.400;16.880;2024-01-30T13:44:01;22.10;;;12.40;;
24335;SDS011;75016;52.400;16.880;2024-01-30T13:46:29;22.60;;;12.00;;
24335;SDS011;75016;52.400;16.880;2024-01-30T13:48:57;22.70;;;13.00;;
24335;SDS011;75016;52.400;16.880;2024-01-30T13:51:23;32.20;;;13.80;;
24335;SDS011;75016;52.400;16.880;2024-01-30T13:53:50;21.60;;;13.20;;
24335;SDS011;75016;52.400;16.880;2024-01-30T13:56:17;22.40;;;12.90;;
24335;SDS011;75016;52.400;16.880;2024-01-30T13:58:44;21.00;;;13.70;;
24335;SDS011;75016;52.400;16.880;2024-01-30T14:01:11;24.80;;;14.10;;
24335;SDS011;75016;52.400;16.880;2024-01-30T14:03:37;28.30;;;14.60;;
24335;SDS011;75016;52.400;16.880;2024-01-30T14:06:04;24.10;;;13.50;;
24335;SDS011;75016;52.400;16.880;2024-01-30T14:08:31;25.80;;;14.00;;
24335;SDS011;75016;52.400;16.880;2024-01-30T14:10:58;30.00;;;14.40;;
24335;SDS011;75016;52.400;16.880;2024-01-30T14:13:25;25.10;;;14.10;;